McGrew, NE (69353)

2:55 AM MST on February 06, 2016 (GMT -0700)
Wildcat Hills Gering Nebraska USA | | Change Station
CLOSE
Current Station
Personal Weather Station
Location: Gering, NE
Elevation: 4360 ft
Nearby Weather Stations
Active Advisory: High Wind Watch

Elev 4360 ft 41.72 °N, 103.67 °W | Updated 11 seconds ago

Clear
Clear
31.3 °F
Feels Like 31 °F
N
2.0
Wind Variable Wind from WNW
Gusts 10.0 mph

Today
High -- | Low -- °F
--% Chance of Precip.
Yesterday
High -- | Low -- °F
Precip. -- in
Pressure 30.31 in
Visibility 10.0 miles
Clouds Clear
Windchill 31 °F
Dew Point 19 °F
Humidity 59%
Rainfall 0.00 in
Snow Depth Not available.
7:02 AM 5:16 PM
Waning Crescent, 6% visible
METAR KBFF 060953Z AUTO 32007KT 10SM CLR M09/M12 A3019 RMK AO2 SLP262 T10891122
Pressure 30.31 in
Visibility 10.0 miles
Clouds Clear
Windchill 31 °F
Dew Point 19 °F
Humidity 59%
Rainfall 0.00 in
Snow Depth Not available.
7:02 AM 5:16 PM
Waning Crescent, 6% visible
METAR KBFF 060953Z AUTO 32007KT 10SM CLR M09/M12 A3019 RMK AO2 SLP262 T10891122

10-Day Weather Forecast

Almanac

Astronomy

Feb. 06, 2016 Rise Set
Actual Time
Civil Twilight
Nautical Twilight
Astronomical Twilight
Moon
Length of Visible Light
Length of Day
Tomorrow will be .
, % of the Moon is Illuminated

Today's Extremes

State Highs State Lows

Community

WunderPhotos

Upload Photos

1,890,933 photos uploaded!

WunderBlog® & News

Nearby

Air Quality

  Air Quality AQ Index Pollutant
Not available.

Snow Depth

Station Depth Elevation

Earthquake Activity

City Distance Mag. Time & Date
Minimum magnitude displayed is 2.5.

Coastal Water Temperatures

Place Temperature

Stations

Nearby Weather Stations

Station Location Temp. Windchill Dew Point Humidity Wind Precip. Elev Updated Type
                   

Watches & Warnings

High Wind Watch
Issued: 2:04 AM MST Feb. 6, 2016 – National Weather Service

... High wind watch in effect from Sunday morning through Sunday
afternoon...

The National Weather Service in Cheyenne has issued a high wind
watch... which is in effect from Sunday morning through Sunday
afternoon.

* Timing... 8 am Sunday to 6 PM Sunday.

* Winds... northwest 30 to 40 mph with gusts to 60 mph.

* Impacts... mainly to transportation. Travel may be hazardous to
light weight and high profile vehicles... especially on east to
west oriented roadways.

Precautionary/preparedness actions...

A high wind watch means there is the potential for a hazardous
high wind event. Sustained winds of at least 40 mph... or gusts of
58 mph or stronger may occur. Continue to monitor the latest
forecasts.



Rubin